Time;durP1;ratioP1;P1;durP2;ratioP2;P2;SDS_P1;SDS_P2;PMS_P1;PMS_P2;Temp;Humidity;BMP_temperature;BMP_pressure;BME280_temperature;BME280_humidity;BME280_pressure;Samples;Min_cycle;Max_cycle;Signal;HPM_P1;HPM_P2
2023/06/17 00:01:25;;;;;;;19.60;16.77;;;15.90;99.90;;;;;;5068474;28;20229;-52
2023/06/17 00:03:52;;;;;;;23.77;18.03;;;15.90;99.90;;;;;;5083501;28;20221;-47
2023/06/17 00:06:19;;;;;;;24.13;17.43;;;15.90;99.90;;;;;;5081014;28;20209;-52
2023/06/17 00:08:46;;;;;;;28.60;18.23;;;16.00;99.90;;;;;;5063707;28;20206;-51
2023/06/17 00:11:12;;;;;;;26.10;17.60;;;16.00;99.90;;;;;;5075989;28;20247;-52
2023/06/17 00:13:40;;;;;;;27.63;18.07;;;16.00;99.90;;;;;;5074276;28;20190;-51
2023/06/17 00:16:09;;;;;;;28.10;18.33;;;16.00;99.90;;;;;;5082490;28;20190;-52
2023/06/17 00:18:39;;;;;;;27.40;18.03;;;15.90;99.90;;;;;;5075675;28;20943;-49
2023/06/17 00:21:08;;;;;;;30.10;18.17;;;15.90;99.90;;;;;;5081474;28;20186;-51
2023/06/17 00:23:35;;;;;;;31.33;19.10;;;15.90;99.90;;;;;;5056172;28;20213;-49
2023/06/17 00:26:03;;;;;;;32.27;18.90;;;15.90;99.90;;;;;;5079824;28;20218;-53
2023/06/17 00:28:30;;;;;;;26.93;18.63;;;15.90;99.90;;;;;;5072371;28;20240;-49
2023/06/17 00:30:57;;;;;;;24.80;19.37;;;15.90;99.90;;;;;;5065316;28;20239;-47
2023/06/17 00:33:23;;;;;;;29.47;17.60;;;15.90;99.90;;;;;;5071714;28;20193;-52
2023/06/17 00:35:52;;;;;;;29.77;18.93;;;15.80;99.90;;;;;;5078259;28;20737;-48
2023/06/17 00:38:19;;;;;;;27.27;18.30;;;15.90;99.90;;;;;;5064535;28;20201;-51
2023/06/17 00:40:47;;;;;;;31.27;19.10;;;15.90;99.90;;;;;;5061861;28;20218;-52
2023/06/17 00:43:14;;;;;;;25.80;18.37;;;15.90;99.90;;;;;;5074557;28;20202;-50
2023/06/17 00:45:41;;;;;;;30.53;20.83;;;15.90;99.90;;;;;;5063125;28;20217;-49
2023/06/17 00:48:09;;;;;;;28.80;19.90;;;15.90;99.90;;;;;;5062663;28;20206;-50
2023/06/17 00:50:37;;;;;;;31.47;20.27;;;15.90;99.90;;;;;;5060400;28;20229;-51
2023/06/17 00:53:06;;;;;;;28.77;19.37;;;15.90;99.90;;;;;;5083446;28;20194;-48
2023/06/17 00:55:33;;;;;;;31.97;19.77;;;15.90;99.90;;;;;;5063689;28;20204;-50
2023/06/17 00:58:00;;;;;;;28.70;20.60;;;15.90;99.90;;;;;;5057514;28;20749;-48
2023/06/17 01:00:27;;;;;;;28.67;20.00;;;15.90;99.90;;;;;;5054956;28;20202;-51
2023/06/17 01:02:56;;;;;;;31.93;20.40;;;15.80;99.90;;;;;;5053762;28;20210;-48
2023/06/17 01:05:23;;;;;;;32.53;19.77;;;15.80;99.90;;;;;;5077715;28;20213;-50
2023/06/17 01:08:02;;;;;;;28.23;18.67;;;15.80;99.90;;;;;;5077299;28;20201;-47
2023/06/17 01:10:40;;;;;;;23.83;17.40;;;15.80;99.90;;;;;;5040536;28;20923;-50
2023/06/17 01:13:07;;;;;;;28.60;18.43;;;15.90;99.90;;;;;;5066694;28;20202;-50
2023/06/17 01:15:35;;;;;;;27.93;18.97;;;15.90;99.90;;;;;;5061265;28;20186;-48
2023/06/17 01:18:04;;;;;;;29.77;18.83;;;15.90;99.90;;;;;;5075759;28;20560;-49
2023/06/17 01:20:32;;;;;;;31.73;19.43;;;15.90;99.90;;;;;;5078792;28;20280;-49
2023/06/17 01:23:01;;;;;;;31.80;19.13;;;15.90;99.90;;;;;;5080157;28;20193;-52
2023/06/17 01:25:31;;;;;;;31.67;19.47;;;15.90;99.90;;;;;;5055409;28;20268;-49
2023/06/17 01:28:13;;;;;;;34.63;19.83;;;15.90;99.90;;;;;;5082536;28;20694;-48
2023/06/17 01:30:40;;;;;;;37.80;20.23;;;16.00;99.90;;;;;;5077421;28;20217;-53
2023/06/17 01:33:07;;;;;;;30.53;20.80;;;16.00;99.90;;;;;;5064397;28;20201;-52
2023/06/17 01:35:38;;;;;;;33.33;20.67;;;15.90;99.90;;;;;;5065187;28;20278;-52
2023/06/17 01:38:10;;;;;;;36.33;21.30;;;15.90;99.90;;;;;;5085546;28;20247;-52
2023/06/17 01:40:41;;;;;;;27.20;19.13;;;15.90;99.90;;;;;;5045863;28;20255;-51
2023/06/17 01:43:09;;;;;;;31.13;20.07;;;15.90;99.90;;;;;;5086401;28;20186;-52
2023/06/17 01:45:36;;;;;;;32.57;20.57;;;15.90;99.90;;;;;;5052567;28;20202;-49
2023/06/17 01:48:04;;;;;;;31.97;20.83;;;15.80;99.90;;;;;;5062187;28;20193;-48
2023/06/17 01:50:31;;;;;;;31.50;20.83;;;15.90;99.90;;;;;;5053219;28;20306;-49
2023/06/17 01:52:58;;;;;;;30.63;20.23;;;15.90;99.90;;;;;;5068269;28;20194;-51
2023/06/17 01:55:25;;;;;;;32.23;20.23;;;15.90;99.90;;;;;;5082496;28;20190;-48
2023/06/17 01:57:53;;;;;;;30.00;20.93;;;15.90;99.90;;;;;;5066156;28;20202;-51
2023/06/17 02:00:20;;;;;;;32.73;20.27;;;15.90;99.90;;;;;;5051994;28;20218;-52
2023/06/17 02:02:54;;;;;;;31.83;19.60;;;15.90;99.90;;;;;;5068168;28;20198;-49
2023/06/17 02:05:22;;;;;;;31.43;20.50;;;15.90;99.90;;;;;;5076291;28;20241;-51
2023/06/17 02:07:49;;;;;;;31.97;20.53;;;15.90;99.90;;;;;;5067591;28;20234;-49
2023/06/17 02:10:16;;;;;;;26.80;20.23;;;15.90;99.90;;;;;;5063677;28;20319;-52
2023/06/17 02:12:43;;;;;;;29.03;19.13;;;15.90;99.90;;;;;;5059134;28;20194;-49
2023/06/17 02:15:12;;;;;;;27.33;18.17;;;16.00;99.90;;;;;;5059461;28;20210;-52
2023/06/17 02:17:38;;;;;;;26.87;18.00;;;16.00;99.90;;;;;;5083515;28;20261;-52
2023/06/17 02:20:09;;;;;;;30.57;19.27;;;15.90;99.90;;;;;;5085367;28;20214;-50
2023/06/17 02:22:36;;;;;;;29.97;19.17;;;15.80;99.90;;;;;;5072933;28;20285;-50
2023/06/17 02:25:06;;;;;;;29.53;18.40;;;15.80;99.90;;;;;;5064514;28;20190;-48
2023/06/17 02:27:33;;;;;;;28.97;18.50;;;15.70;99.90;;;;;;5036311;28;20243;-50
2023/06/17 02:30:01;;;;;;;29.33;19.17;;;15.70;99.90;;;;;;5085457;28;20216;-48
2023/06/17 02:32:31;;;;;;;29.00;20.67;;;15.60;99.90;;;;;;5050640;28;20215;-49
2023/06/17 02:34:58;;;;;;;27.73;18.27;;;15.60;99.90;;;;;;5062883;28;20194;-48
2023/06/17 02:37:26;;;;;;;32.23;19.07;;;15.60;99.90;;;;;;5054639;28;20790;-52
2023/06/17 02:39:53;;;;;;;30.83;19.70;;;15.70;99.90;;;;;;5063684;28;20210;-52
2023/06/17 02:42:20;;;;;;;28.87;21.03;;;15.70;99.90;;;;;;5066186;28;20221;-53
2023/06/17 02:44:49;;;;;;;29.23;21.47;;;15.70;99.90;;;;;;5064967;28;20225;-52
2023/06/17 02:47:16;;;;;;;27.73;20.20;;;15.70;99.90;;;;;;5049898;28;20658;-50
2023/06/17 02:49:44;;;;;;;26.13;19.80;;;15.70;99.90;;;;;;5080730;28;20236;-48
2023/06/17 02:52:11;;;;;;;28.47;19.17;;;15.70;99.90;;;;;;5076457;28;20202;-50
2023/06/17 02:54:38;;;;;;;25.17;19.03;;;15.70;99.90;;;;;;5065176;28;20205;-48
2023/06/17 02:57:10;;;;;;;29.03;20.70;;;15.70;99.90;;;;;;5059967;28;20194;-50
2023/06/17 02:59:37;;;;;;;29.83;19.60;;;15.70;99.90;;;;;;5046161;28;20221;-47
2023/06/17 03:02:04;;;;;;;26.43;19.10;;;15.60;99.90;;;;;;5054030;28;20260;-49
2023/06/17 03:04:34;;;;;;;26.43;18.97;;;15.60;99.90;;;;;;5061554;28;20963;-52
2023/06/17 03:07:03;;;;;;;26.07;18.50;;;15.60;99.90;;;;;;5078012;28;20283;-47
2023/06/17 03:09:30;;;;;;;25.17;17.93;;;15.60;99.90;;;;;;5062722;28;20209;-52
2023/06/17 03:12:02;;;;;;;25.57;18.27;;;15.60;99.90;;;;;;5058756;28;20681;-52
2023/06/17 03:14:29;;;;;;;28.77;19.47;;;15.60;99.90;;;;;;5043229;28;20205;-51
2023/06/17 03:16:58;;;;;;;30.27;20.17;;;15.60;99.90;;;;;;5059389;28;20194;-47
2023/06/17 03:19:25;;;;;;;28.60;19.93;;;15.60;99.90;;;;;;5061347;28;20213;-48
2023/06/17 03:21:52;;;;;;;26.87;20.37;;;15.60;99.90;;;;;;5064514;28;20546;-48
2023/06/17 03:24:23;;;;;;;31.60;20.23;;;15.60;99.90;;;;;;5051918;28;20288;-52
2023/06/17 03:26:51;;;;;;;27.10;19.70;;;15.60;99.90;;;;;;5066176;28;20713;-49
2023/06/17 03:29:18;;;;;;;28.30;19.13;;;15.60;99.90;;;;;;5061902;28;20217;-51
2023/06/17 03:31:47;;;;;;;24.30;18.07;;;15.70;99.90;;;;;;5065525;28;20247;-51
2023/06/17 03:34:13;;;;;;;28.20;19.87;;;15.60;99.90;;;;;;5071940;28;20194;-53
2023/06/17 03:36:40;;;;;;;26.73;19.50;;;15.60;99.90;;;;;;5061495;28;20189;-49
2023/06/17 03:39:07;;;;;;;28.40;21.57;;;15.60;99.90;;;;;;5058908;28;20222;-50
2023/06/17 03:41:38;;;;;;;33.10;21.87;;;15.60;99.90;;;;;;5063679;28;20664;-46
2023/06/17 03:44:05;;;;;;;25.47;19.70;;;15.60;99.90;;;;;;5042747;28;20206;-47
2023/06/17 03:46:32;;;;;;;31.10;21.40;;;15.60;99.90;;;;;;5058071;28;20255;-49
2023/06/17 03:49:00;;;;;;;31.43;20.23;;;15.60;99.90;;;;;;5054107;28;20232;-48
2023/06/17 03:51:27;;;;;;;29.33;19.97;;;15.70;99.90;;;;;;5061498;28;20194;-50
2023/06/17 03:53:54;;;;;;;28.07;21.03;;;15.70;99.90;;;;;;5058562;28;20204;-50
2023/06/17 03:56:22;;;;;;;29.37;19.90;;;15.70;99.90;;;;;;5061894;28;20672;-50
2023/06/17 03:58:53;;;;;;;28.90;21.17;;;15.80;99.90;;;;;;5040559;28;20201;-53
2023/06/17 04:01:21;;;;;;;29.10;21.17;;;15.80;99.90;;;;;;5062493;28;20212;-50
2023/06/17 04:03:47;;;;;;;36.50;21.27;;;15.80;99.90;;;;;;5057004;28;20232;-54
2023/06/17 04:06:14;;;;;;;33.20;22.23;;;15.80;99.90;;;;;;5063696;28;20224;-51
2023/06/17 04:08:43;;;;;;;30.70;21.97;;;15.80;99.90;;;;;;5056398;28;21312;-49
2023/06/17 04:11:10;;;;;;;26.97;21.83;;;15.80;99.90;;;;;;5057680;28;20592;-52
2023/06/17 04:13:37;;;;;;;32.47;22.50;;;15.80;99.90;;;;;;5042546;28;20957;-49
2023/06/17 04:16:05;;;;;;;32.27;23.03;;;15.80;99.90;;;;;;5064976;28;20248;-50
2023/06/17 04:18:32;;;;;;;33.23;23.27;;;15.90;99.90;;;;;;5062245;28;20178;-50
2023/06/17 04:20:59;;;;;;;28.60;22.97;;;15.90;99.90;;;;;;5074923;28;20229;-51
2023/06/17 04:23:29;;;;;;;33.40;23.23;;;16.00;99.90;;;;;;5049130;28;22578;-51
2023/06/17 04:25:57;;;;;;;30.17;23.30;;;15.90;99.90;;;;;;5064490;28;20621;-48
2023/06/17 04:28:24;;;;;;;24.93;21.10;;;15.90;99.90;;;;;;5061665;28;20201;-53
2023/06/17 04:30:52;;;;;;;32.53;21.97;;;15.90;99.90;;;;;;5045277;28;20910;-50
2023/06/17 04:33:24;;;;;;;32.83;22.53;;;15.90;99.90;;;;;;5060813;28;20186;-53
2023/06/17 04:35:51;;;;;;;29.93;22.07;;;15.90;99.90;;;;;;5053531;28;20676;-49
2023/06/17 04:38:20;;;;;;;30.30;21.97;;;15.90;99.90;;;;;;5055047;28;20213;-52
2023/06/17 04:40:52;;;;;;;30.87;22.07;;;16.00;99.90;;;;;;5057626;28;20210;-50
2023/06/17 04:43:22;;;;;;;34.03;21.57;;;16.00;99.90;;;;;;5062010;28;20192;-53
2023/06/17 04:45:49;;;;;;;31.83;22.70;;;16.00;99.90;;;;;;5032912;28;20287;-50
2023/06/17 04:48:16;;;;;;;32.07;22.30;;;16.10;99.90;;;;;;5059626;28;20489;-47
2023/06/17 04:50:45;;;;;;;33.63;22.87;;;16.10;99.90;;;;;;5047778;28;20228;-52
2023/06/17 04:53:12;;;;;;;29.13;22.33;;;16.10;99.90;;;;;;5079721;28;20185;-50
2023/06/17 04:55:39;;;;;;;31.20;21.30;;;16.10;99.90;;;;;;5053853;28;20202;-53
2023/06/17 04:58:09;;;;;;;33.23;21.53;;;16.20;99.90;;;;;;5073555;28;20182;-51
2023/06/17 05:00:42;;;;;;;33.63;22.70;;;16.20;99.90;;;;;;5051343;28;20217;-54
2023/06/17 05:03:13;;;;;;;28.87;21.83;;;16.10;99.90;;;;;;5055355;28;20185;-47
2023/06/17 05:05:40;;;;;;;30.80;22.93;;;16.20;99.90;;;;;;5071902;28;20228;-51
2023/06/17 05:08:08;;;;;;;34.30;22.47;;;16.20;99.90;;;;;;5065642;28;20205;-48
2023/06/17 05:10:35;;;;;;;29.43;22.07;;;16.20;99.90;;;;;;5058855;28;20933;-50
2023/06/17 05:13:03;;;;;;;30.90;21.30;;;16.20;99.90;;;;;;5040229;28;20277;-48
2023/06/17 05:15:32;;;;;;;31.03;21.90;;;16.20;99.90;;;;;;5066509;28;20182;-49
2023/06/17 05:17:58;;;;;;;31.90;21.90;;;16.20;99.90;;;;;;5042558;28;21019;-47
2023/06/17 05:20:25;;;;;;;27.27;21.60;;;16.20;99.90;;;;;;5061097;28;20225;-48
2023/06/17 05:22:52;;;;;;;27.23;20.63;;;16.20;99.90;;;;;;5050467;28;20584;-52
2023/06/17 05:25:20;;;;;;;25.90;20.80;;;16.20;99.90;;;;;;5065917;28;20206;-51
2023/06/17 05:27:48;;;;;;;27.10;21.50;;;16.20;99.90;;;;;;5041694;28;20214;-53
2023/06/17 05:30:15;;;;;;;28.53;21.47;;;16.20;99.90;;;;;;5064651;28;20232;-49
2023/06/17 05:32:46;;;;;;;30.33;22.87;;;16.20;99.90;;;;;;5043852;28;20218;-52
2023/06/17 05:35:13;;;;;;;31.60;23.90;;;16.30;99.90;;;;;;5060429;28;20209;-46
2023/06/17 05:37:40;;;;;;;32.40;24.53;;;16.30;99.90;;;;;;5058000;28;20221;-52
2023/06/17 05:40:08;;;;;;;34.07;23.83;;;16.20;99.90;;;;;;5081366;28;20209;-47
2023/06/17 05:42:36;;;;;;;34.00;23.30;;;16.30;99.90;;;;;;5077360;28;20243;-53
2023/06/17 05:45:04;;;;;;;34.00;24.73;;;16.30;99.90;;;;;;5060436;28;20191;-49
2023/06/17 05:47:31;;;;;;;37.97;24.67;;;16.30;99.90;;;;;;5043796;28;20226;-49
2023/06/17 05:49:58;;;;;;;38.47;24.20;;;16.30;99.90;;;;;;5062312;28;20206;-49
2023/06/17 05:52:25;;;;;;;32.93;24.87;;;16.40;99.90;;;;;;5058036;28;20236;-49
2023/06/17 05:54:52;;;;;;;36.67;25.07;;;16.40;99.90;;;;;;5061587;28;20243;-51
2023/06/17 05:57:21;;;;;;;32.43;24.13;;;16.40;99.90;;;;;;5050499;28;20190;-52
2023/06/17 05:59:49;;;;;;;40.93;26.20;;;16.50;99.90;;;;;;5050169;28;20241;-51
2023/06/17 06:02:18;;;;;;;35.30;25.00;;;16.60;99.90;;;;;;5065304;28;20289;-49
2023/06/17 06:04:47;;;;;;;41.37;27.03;;;16.60;99.90;;;;;;5042388;28;20216;-52
2023/06/17 06:07:13;;;;;;;41.20;25.67;;;16.70;99.90;;;;;;5081935;28;20182;-48
2023/06/17 06:09:40;;;;;;;42.43;27.17;;;16.70;99.90;;;;;;5052950;28;20217;-52
2023/06/17 06:12:08;;;;;;;39.97;25.60;;;16.70;99.90;;;;;;5056078;28;20237;-46
2023/06/17 06:14:35;;;;;;;44.37;27.80;;;16.70;99.90;;;;;;5065349;28;20546;-51
2023/06/17 06:17:03;;;;;;;43.73;27.13;;;16.70;99.90;;;;;;5063508;28;20186;-48
2023/06/17 06:19:30;;;;;;;40.40;27.53;;;16.80;99.90;;;;;;5068269;28;20630;-51
2023/06/17 06:21:57;;;;;;;41.53;26.10;;;16.80;99.90;;;;;;5056199;28;20189;-50
2023/06/17 06:24:23;;;;;;;35.33;26.97;;;16.80;99.90;;;;;;5059183;28;20709;-47
2023/06/17 06:26:50;;;;;;;36.13;26.60;;;16.80;99.90;;;;;;5081677;28;20198;-54
2023/06/17 06:29:17;;;;;;;34.23;25.40;;;16.80;99.90;;;;;;5059063;28;20222;-50
2023/06/17 06:31:45;;;;;;;41.80;25.83;;;16.80;99.90;;;;;;5065077;28;20285;-50
2023/06/17 06:34:15;;;;;;;35.03;25.00;;;16.90;99.90;;;;;;5058699;28;20209;-52
2023/06/17 06:36:42;;;;;;;39.20;26.73;;;17.00;99.90;;;;;;5044052;28;20231;-51
2023/06/17 06:39:11;;;;;;;42.23;26.03;;;17.00;99.90;;;;;;5056423;28;23062;-52
2023/06/17 06:41:38;;;;;;;34.50;26.13;;;17.00;99.90;;;;;;5064454;28;20192;-52
2023/06/17 06:44:24;;;;;;;37.43;25.90;;;17.00;99.90;;;;;;5043406;28;20297;-48
2023/06/17 06:46:55;;;;;;;39.07;25.63;;;17.10;99.90;;;;;;5054183;28;20186;-52
2023/06/17 06:49:24;;;;;;;31.27;24.17;;;17.10;99.90;;;;;;5064739;28;20222;-50
2023/06/17 06:51:50;;;;;;;30.40;23.20;;;17.10;99.90;;;;;;5060714;28;20209;-52
2023/06/17 06:54:17;;;;;;;33.20;24.97;;;17.20;99.90;;;;;;5062120;28;20189;-48
2023/06/17 06:56:45;;;;;;;34.40;27.07;;;17.20;99.90;;;;;;5052179;28;20202;-53
2023/06/17 06:59:12;;;;;;;35.53;26.03;;;17.20;99.90;;;;;;5055357;28;20210;-49
2023/06/17 07:01:39;;;;;;;39.07;27.30;;;17.20;99.90;;;;;;5061759;28;20881;-52
2023/06/17 07:04:07;;;;;;;34.63;25.77;;;17.20;99.90;;;;;;5080905;28;20964;-47
2023/06/17 07:06:35;;;;;;;37.03;25.23;;;17.30;99.90;;;;;;5044495;28;20214;-50
2023/06/17 07:09:05;;;;;;;38.30;25.67;;;17.40;99.90;;;;;;5058207;28;20221;-52
2023/06/17 07:11:32;;;;;;;36.50;26.33;;;17.40;99.90;;;;;;5074289;28;20205;-47
2023/06/17 07:13:59;;;;;;;31.50;23.93;;;17.50;99.90;;;;;;5072503;28;20198;-49
2023/06/17 07:16:26;;;;;;;38.07;26.43;;;17.50;99.90;;;;;;5066565;28;20260;-47
2023/06/17 07:18:54;;;;;;;31.10;25.50;;;17.50;99.90;;;;;;5056228;28;20701;-50
2023/06/17 07:21:22;;;;;;;39.23;25.13;;;17.50;99.90;;;;;;5039034;28;20285;-50
2023/06/17 07:23:51;;;;;;;37.80;26.47;;;17.50;99.90;;;;;;5060711;28;20197;-53
2023/06/17 07:26:18;;;;;;;33.90;26.10;;;17.60;99.90;;;;;;5062317;28;20624;-49
2023/06/17 07:28:45;;;;;;;36.27;27.03;;;17.60;99.90;;;;;;5048558;28;20316;-52
2023/06/17 07:31:12;;;;;;;38.83;27.70;;;17.60;99.90;;;;;;5061932;28;20194;-53
2023/06/17 07:33:40;;;;;;;35.97;25.43;;;17.50;99.90;;;;;;5059074;28;20198;-52
2023/06/17 07:36:07;;;;;;;35.40;26.13;;;17.60;99.90;;;;;;5059670;28;20210;-49
2023/06/17 07:38:34;;;;;;;38.83;27.30;;;17.60;99.90;;;;;;5064769;28;20479;-50
2023/06/17 07:41:03;;;;;;;35.23;25.57;;;17.70;99.90;;;;;;5060311;28;20998;-50
2023/06/17 07:43:31;;;;;;;37.87;26.50;;;17.80;99.90;;;;;;5071907;28;20218;-49
2023/06/17 07:45:58;;;;;;;34.20;25.40;;;17.90;99.90;;;;;;5058371;28;20202;-48
2023/06/17 07:48:24;;;;;;;33.57;25.60;;;18.10;99.90;;;;;;5083360;28;20221;-47
2023/06/17 07:50:51;;;;;;;36.70;26.57;;;18.20;99.90;;;;;;5071448;28;21667;-50
2023/06/17 07:53:18;;;;;;;37.90;26.23;;;18.30;99.90;;;;;;5061648;28;20221;-49
2023/06/17 07:55:45;;;;;;;38.50;26.25;;;18.30;99.90;;;;;;5079158;28;20430;-50
2023/06/17 07:58:13;;;;;;;37.00;25.20;;;18.40;99.90;;;;;;5071202;28;20232;-51
2023/06/17 08:00:40;;;;;;;33.40;23.67;;;18.40;99.90;;;;;;5065856;28;21010;-47
2023/06/17 08:03:08;;;;;;;34.43;24.73;;;18.50;99.90;;;;;;5061883;28;20304;-49
2023/06/17 08:05:36;;;;;;;30.87;23.43;;;18.60;99.90;;;;;;5069126;28;20190;-48
2023/06/17 08:08:02;;;;;;;33.07;22.97;;;18.60;99.90;;;;;;5059148;28;20218;-50
2023/06/17 08:10:29;;;;;;;31.90;22.47;;;18.70;99.90;;;;;;5074887;28;20214;-46
2023/06/17 08:12:56;;;;;;;33.57;23.83;;;18.80;99.90;;;;;;5065238;28;20270;-50
2023/06/17 08:15:24;;;;;;;27.47;21.80;;;18.80;99.90;;;;;;5066785;28;20206;-52
2023/06/17 08:17:52;;;;;;;31.07;22.53;;;18.90;99.90;;;;;;5071142;28;20217;-48
2023/06/17 08:20:20;;;;;;;32.23;22.40;;;19.00;99.90;;;;;;5069889;28;20244;-52
2023/06/17 08:22:46;;;;;;;32.43;21.83;;;19.00;99.90;;;;;;5057481;28;20217;-47
2023/06/17 08:25:13;;;;;;;32.13;20.60;;;19.00;99.90;;;;;;5078863;28;20202;-49
2023/06/17 08:27:42;;;;;;;26.33;22.33;;;19.10;99.90;;;;;;5077790;28;20186;-48
2023/06/17 08:30:09;;;;;;;30.43;21.93;;;19.40;99.90;;;;;;5074182;28;20221;-52
2023/06/17 08:32:37;;;;;;;29.93;20.93;;;19.40;99.90;;;;;;5073143;28;20836;-49
2023/06/17 08:35:06;;;;;;;26.27;19.27;;;19.50;99.90;;;;;;5073221;28;20298;-50
2023/06/17 08:37:33;;;;;;;23.60;17.37;;;19.50;99.90;;;;;;5072458;28;20196;-47
2023/06/17 08:40:00;;;;;;;23.52;18.95;;;19.50;99.90;;;;;;5053747;28;20435;-51
2023/06/17 08:42:28;;;;;;;28.07;21.03;;;19.60;99.90;;;;;;5081654;28;20194;-48
2023/06/17 08:44:59;;;;;;;26.07;19.33;;;19.60;99.90;;;;;;5065088;28;21568;-51
2023/06/17 08:47:27;;;;;;;23.27;18.73;;;19.50;99.90;;;;;;5081765;28;20193;-49
2023/06/17 08:49:57;;;;;;;24.17;19.17;;;19.40;99.90;;;;;;5045835;28;20994;-47
2023/06/17 08:52:25;;;;;;;35.30;17.20;;;19.50;99.90;;;;;;5073914;28;20251;-50
2023/06/17 08:54:54;;;;;;;25.00;18.00;;;19.70;99.90;;;;;;5050494;28;20218;-48
2023/06/17 08:57:21;;;;;;;27.23;18.17;;;19.90;99.90;;;;;;5073981;28;20280;-51
2023/06/17 08:59:48;;;;;;;28.57;18.87;;;20.00;99.90;;;;;;5069195;28;21522;-48
2023/06/17 09:02:16;;;;;;;34.90;19.87;;;20.00;99.90;;;;;;5080215;28;20190;-53
2023/06/17 09:04:42;;;;;;;26.87;19.77;;;19.90;99.90;;;;;;5065656;28;20190;-49
2023/06/17 09:07:12;;;;;;;101.37;28.73;;;20.00;99.90;;;;;;5077395;28;20297;-49
2023/06/17 09:09:40;;;;;;;27.67;19.57;;;20.10;99.90;;;;;;5043156;28;20290;-51
2023/06/17 09:12:08;;;;;;;25.13;19.63;;;20.30;99.90;;;;;;5075591;28;20285;-48
2023/06/17 09:14:35;;;;;;;373.27;62.77;;;20.30;99.90;;;;;;5076127;28;20213;-49
2023/06/17 09:17:03;;;;;;;32.10;19.57;;;20.30;99.90;;;;;;5074630;28;20197;-47
2023/06/17 09:19:31;;;;;;;27.90;19.97;;;20.30;99.90;;;;;;5067889;28;20423;-47
2023/06/17 09:22:04;;;;;;;24.60;19.13;;;20.30;99.90;;;;;;5058367;28;20428;-51
2023/06/17 09:24:32;;;;;;;22.53;17.83;;;20.30;99.90;;;;;;5069543;28;20227;-52
2023/06/17 09:26:59;;;;;;;27.43;18.87;;;20.10;99.90;;;;;;5059373;28;20200;-47
2023/06/17 09:29:30;;;;;;;23.57;16.77;;;19.90;99.90;;;;;;5080050;28;20229;-47
2023/06/17 09:31:57;;;;;;;34.73;19.10;;;20.00;99.90;;;;;;5064007;28;20198;-51
2023/06/17 09:34:26;;;;;;;23.70;17.83;;;20.30;99.90;;;;;;5077698;28;20290;-49
2023/06/17 09:36:54;;;;;;;19.67;15.67;;;20.50;99.90;;;;;;5063570;28;20210;-47
2023/06/17 09:39:29;;;;;;;20.67;15.43;;;20.40;99.90;;;;;;5062689;28;20210;-53
2023/06/17 09:41:58;;;;;;;20.80;15.70;;;20.60;99.90;;;;;;5060226;28;20223;-49
2023/06/17 09:44:25;;;;;;;20.33;16.10;;;20.70;99.90;;;;;;5058336;28;20947;-50
2023/06/17 09:46:52;;;;;;;18.53;14.40;;;21.00;99.90;;;;;;5074910;28;20209;-53
2023/06/17 09:49:23;;;;;;;17.90;14.00;;;20.90;99.90;;;;;;5077786;28;20217;-51
2023/06/17 09:51:51;;;;;;;15.63;12.70;;;20.90;99.90;;;;;;5075287;28;20238;-51
2023/06/17 09:54:19;;;;;;;16.50;11.90;;;21.00;99.90;;;;;;5078396;28;20182;-52
2023/06/17 09:56:48;;;;;;;21.40;13.33;;;21.10;99.90;;;;;;5058197;28;20206;-53
2023/06/17 09:59:18;;;;;;;16.23;12.20;;;21.10;99.90;;;;;;5069559;28;20696;-51
2023/06/17 10:01:46;;;;;;;46.80;13.43;;;21.10;99.90;;;;;;5076959;28;20194;-48
2023/06/17 10:04:13;;;;;;;13.70;12.23;;;21.20;99.90;;;;;;5075330;28;20624;-49
2023/06/17 10:06:41;;;;;;;18.40;14.20;;;21.30;99.90;;;;;;5075221;28;20202;-50
2023/06/17 10:09:09;;;;;;;15.18;12.10;;;21.40;99.90;;;;;;5076109;28;20210;-49
2023/06/17 10:11:36;;;;;;;30.37;13.53;;;21.40;99.90;;;;;;5079048;28;20244;-47
2023/06/17 10:14:07;;;;;;;73.70;22.37;;;21.50;99.90;;;;;;5061023;28;20969;-48
2023/06/17 10:16:40;;;;;;;17.07;12.53;;;21.30;99.90;;;;;;5077104;28;20209;-47
2023/06/17 10:19:09;;;;;;;20.07;12.30;;;21.30;99.90;;;;;;5071572;28;20971;-49
2023/06/17 10:21:40;;;;;;;14.37;10.50;;;21.60;99.90;;;;;;5074017;28;20206;-47
2023/06/17 10:24:08;;;;;;;13.57;9.10;;;21.80;99.90;;;;;;5080798;28;20182;-48
2023/06/17 10:26:35;;;;;;;11.77;9.15;;;21.70;99.90;;;;;;5079129;28;20267;-52
2023/06/17 10:29:06;;;;;;;14.77;9.80;;;21.90;99.90;;;;;;5061988;28;20993;-49
2023/06/17 10:31:39;;;;;;;10.80;9.00;;;22.10;99.90;;;;;;5073158;28;20838;-52
2023/06/17 10:34:06;;;;;;;11.52;9.55;;;22.40;99.90;;;;;;5071722;28;20248;-50
2023/06/17 10:36:35;;;;;;;14.30;9.93;;;22.40;99.90;;;;;;5083878;28;20205;-48
2023/06/17 10:39:06;;;;;;;11.63;9.27;;;22.60;99.90;;;;;;5072435;28;20198;-52
2023/06/17 10:41:59;;;;;;;11.02;9.27;;;22.90;99.90;;;;;;5083911;28;20190;-50
2023/06/17 10:44:41;;;;;;;10.98;9.20;;;23.00;99.90;;;;;;5054762;28;20259;-49
2023/06/17 10:47:20;;;;;;;11.50;8.77;;;22.90;99.90;;;;;;5075854;28;20259;-49
2023/06/17 10:49:49;;;;;;;12.18;8.30;;;23.00;99.90;;;;;;5067751;28;20266;-52
2023/06/17 10:52:16;;;;;;;9.85;8.23;;;23.20;99.90;;;;;;5078424;28;20213;-48
2023/06/17 10:54:51;;;;;;;11.07;8.75;;;23.30;99.90;;;;;;5072653;28;20190;-52
2023/06/17 10:57:29;;;;;;;8.50;7.72;;;23.40;99.90;;;;;;5080946;28;20197;-54
2023/06/17 10:59:59;;;;;;;11.32;8.63;;;23.30;99.90;;;;;;5051609;28;20218;-50
2023/06/17 11:02:27;;;;;;;9.23;8.32;;;23.30;99.90;;;;;;5074877;28;20240;-48
2023/06/17 11:04:54;;;;;;;9.35;8.23;;;23.30;99.90;;;;;;5072954;28;20193;-50
2023/06/17 11:07:26;;;;;;;11.10;8.75;;;23.30;99.90;;;;;;5083125;28;20291;-51
2023/06/17 11:09:53;;;;;;;9.90;8.65;;;23.30;99.90;;;;;;5069024;28;20326;-50
2023/06/17 11:12:20;;;;;;;10.15;8.25;;;23.30;99.90;;;;;;5083823;28;20277;-51
2023/06/17 11:14:47;;;;;;;10.93;7.95;;;23.10;99.90;;;;;;5054780;28;20276;-50
2023/06/17 11:17:14;;;;;;;10.45;8.38;;;23.20;99.90;;;;;;5078756;28;20202;-50
2023/06/17 11:19:42;;;;;;;8.63;7.57;;;23.20;99.90;;;;;;5070780;28;20288;-48
2023/06/17 11:22:09;;;;;;;9.63;8.02;;;23.20;99.90;;;;;;5083563;28;20251;-50
2023/06/17 11:24:36;;;;;;;9.10;7.97;;;23.30;99.90;;;;;;5069357;28;20226;-51
2023/06/17 11:27:05;;;;;;;7.43;6.65;;;23.50;99.40;;;;;;5082881;28;20198;-52
2023/06/17 11:29:32;;;;;;;6.90;6.18;;;23.70;98.20;;;;;;5063177;28;20213;-49
2023/06/17 11:32:00;;;;;;;8.02;6.45;;;23.90;97.60;;;;;;5070788;28;20327;-49
2023/06/17 11:34:31;;;;;;;7.57;6.78;;;24.30;96.80;;;;;;5084298;28;20198;-50
2023/06/17 11:37:00;;;;;;;8.68;7.13;;;24.40;96.00;;;;;;5069343;28;21226;-47
2023/06/17 11:39:28;;;;;;;7.70;6.53;;;24.40;95.10;;;;;;5077279;28;20225;-50
2023/06/17 11:42:00;;;;;;;7.30;6.55;;;24.40;94.90;;;;;;5079507;28;20251;-50
2023/06/17 11:44:28;;;;;;;7.63;6.03;;;24.50;93.90;;;;;;5077170;28;20205;-49
2023/06/17 11:46:56;;;;;;;7.82;6.78;;;24.30;93.70;;;;;;5063946;28;20228;-49
2023/06/17 11:49:25;;;;;;;7.10;6.50;;;24.30;93.60;;;;;;5084080;28;20214;-50
2023/06/17 11:51:52;;;;;;;8.18;6.63;;;24.40;93.70;;;;;;5074036;28;20194;-50
2023/06/17 11:54:21;;;;;;;11.30;6.93;;;24.70;92.60;;;;;;5081977;28;20214;-52
2023/06/17 11:56:49;;;;;;;8.93;6.47;;;24.50;91.80;;;;;;5073417;28;20197;-51
2023/06/17 11:59:19;;;;;;;9.60;6.25;;;24.40;91.70;;;;;;5083575;28;20217;-54
2023/06/17 12:01:46;;;;;;;7.38;5.80;;;24.30;91.60;;;;;;5059579;28;20569;-46
2023/06/17 12:04:14;;;;;;;6.90;6.30;;;24.30;91.40;;;;;;5080455;28;20194;-48
2023/06/17 12:06:42;;;;;;;6.03;5.43;;;24.40;90.80;;;;;;5070668;28;20194;-53
2023/06/17 12:09:10;;;;;;;5.85;5.40;;;24.50;90.20;;;;;;5079840;28;20217;-53
2023/06/17 12:11:41;;;;;;;5.95;5.32;;;24.50;90.00;;;;;;5067924;28;20208;-48
2023/06/17 12:14:10;;;;;;;7.32;5.80;;;24.80;88.90;;;;;;5078516;28;20201;-53
2023/06/17 12:16:39;;;;;;;6.07;5.22;;;25.20;87.80;;;;;;5061651;28;20233;-50
2023/06/17 12:19:07;;;;;;;6.60;5.95;;;25.30;87.50;;;;;;5076994;28;20951;-48
2023/06/17 12:21:36;;;;;;;6.40;5.80;;;25.60;87.90;;;;;;5074319;28;20247;-50
2023/06/17 12:24:03;;;;;;;6.38;5.75;;;25.60;86.70;;;;;;5082269;28;20197;-52
2023/06/17 12:26:31;;;;;;;6.88;6.28;;;25.40;86.00;;;;;;5076552;28;20569;-51
2023/06/17 12:29:01;;;;;;;6.00;5.40;;;25.20;86.00;;;;;;5080734;28;20280;-51
2023/06/17 12:31:28;;;;;;;6.53;6.03;;;25.20;86.30;;;;;;5076017;28;20699;-51
2023/06/17 12:33:55;;;;;;;5.85;5.25;;;25.10;85.60;;;;;;5062974;28;20197;-47
2023/06/17 12:36:22;;;;;;;5.75;5.18;;;25.00;85.50;;;;;;5082793;28;20186;-49